Flight Track Log - Related Links

Times and Time Zones

All times are in EDT time to prevent confusion due to time zone crossing. See the UAL582 flight status page for this flight to view local times or setup timezone preferences in your user account.

Time Position Orientation Groundspeed Altitude Reporting Facility
EDT Latitude Longitude Course Direction KTS MPH feet Rate Location/Type
Tue 08:55:26 PM 41.9833 -87.8833 143° Southeast 149 171 1,800  Level Chicago TRACON
Tue 08:56:26 PM 41.9333 -87.8333 143° Southeast 218 251 3,000 2,196 Climbing Chicago TRACON
Tue 08:57:59 PM 41.8428 -87.7775 155° Southeast 272 313 7,400 2,787 Climbing Chicago Center
Tue 08:59:01 PM 41.7675 -87.7642 172° South 276 318 10,200 2,710 Climbing Chicago Center
Tue 09:00:03 PM 41.6878 -87.7442 169° South 289 333 13,000 2,371 Climbing Chicago Center
Tue 09:01:05 PM 41.6075 -87.7000 158° South 316 364 15,100 1,887 Climbing Chicago Center
Tue 09:02:07 PM 41.5175 -87.6544 159° South 355 409 16,900 2,371 Climbing Chicago Center
Tue 09:03:09 PM 41.4200 -87.6358 172° South 352 405 20,000 3,000 Climbing Chicago Center
Tue 09:04:11 PM 41.2978 -87.6125 172° South 366 421 23,100 2,488 Climbing Chicago Center
Tue 09:05:12 PM 41.1972 -87.5464 154° Southeast 414 476 25,100 1,854 Climbing Chicago Center
Tue 09:06:14 PM 41.0983 -87.4603 147° Southeast 425 489 26,900 1,500 Climbing Chicago Center
Tue 09:07:16 PM 40.9975 -87.3747 147° Southeast 430 495 28,200 1,258 Climbing Chicago Center
Tue 09:08:18 PM 40.8906 -87.3008 152° Southeast 434 499 29,500 1,210 Climbing Chicago Center
Tue 09:09:20 PM 40.7794 -87.2397 157° South 434 499 30,700 1,306 Climbing Chicago Center
Tue 09:10:22 PM 40.6639 -87.2181 172° South 422 486 32,200 1,258 Climbing Chicago Center
Tue 09:11:24 PM 40.5283 -87.1992 174° South 411 473 33,300 878 Climbing Chicago Center
Tue 09:12:25 PM 40.4172 -87.1633 166° South 411 473 34,000 341 Climbing Chicago Center
Tue 09:13:27 PM 40.2997 -87.1192 164° South 435 501 34,000 484 Level Chicago Center
Tue 09:14:29 PM 40.1808 -87.0789 165° South 443 510 35,000 484 Climbing Chicago Center
Tue 09:15:31 PM 40.0644 -87.0431 167° South 432 497 35,000  Level Chicago Center
Tue 09:15:59 PM 40.0103 -87.0244 165° South 433 498 35,000  Level Indianapolis Center
Tue 09:17:00 PM 39.8914 -86.9872 166° South 435 501 35,000  Level Indianapolis Center
Tue 09:18:02 PM 39.7728 -86.9489 166° South 435 501 35,000  Level Indianapolis Center
Tue 09:19:02 PM 39.6544 -86.9119 166° South 436 502 35,000  Level Indianapolis Center
Tue 09:20:03 PM 39.5122 -86.8678 167° South 435 501 35,000  Level Indianapolis Center
Tue 09:21:04 PM 39.3947 -86.8308 166° South 434 499 35,000  Level Indianapolis Center
Tue 09:22:05 PM 39.2806 -86.7708 158° South 441 507 35,000  Level Indianapolis Center
Tue 09:23:06 PM 39.1667 -86.7083 157° South 441 507 35,000  Level Indianapolis Center
Tue 09:24:07 PM 39.0544 -86.6506 158° South 434 499 35,000  Level Indianapolis Center
Tue 09:25:08 PM 38.9342 -86.6133 166° South 440 506 35,000  Level Indianapolis Center
Tue 09:26:09 PM 38.8144 -86.5781 167° South 439 505 35,000  Level Indianapolis Center
Tue 09:27:11 PM 38.6933 -86.5425 167° South 441 507 35,000  Level Indianapolis Center
Tue 09:28:12 PM 38.5717 -86.5061 167° South 442 509 35,000  Level Indianapolis Center
Tue 09:29:13 PM 38.4497 -86.4708 167° South 444 511 35,000  Level Indianapolis Center
Tue 09:30:14 PM 38.3281 -86.4347 167° South 443 510 35,000  Level Indianapolis Center
Tue 09:31:15 PM 38.2078 -86.4000 167° South 440 506 35,000  Level Indianapolis Center
Tue 09:32:16 PM 38.0875 -86.3650 167° South 439 505 35,000  Level Indianapolis Center
Tue 09:33:17 PM 37.9689 -86.3289 167° South 435 501 35,000  Level Indianapolis Center
Tue 09:34:18 PM 37.8486 -86.2958 168° South 437 503 35,000  Level Indianapolis Center
Tue 09:35:19 PM 37.7269 -86.2611 167° South 439 505 35,000  Level Indianapolis Center
Tue 09:36:20 PM 37.6053 -86.2269 167° South 441 507 35,000  Level Indianapolis Center
Tue 09:36:53 PM 37.5417 -86.2064 166° South 454 522 35,000  Level Memphis Center
Tue 09:37:53 PM 37.4194 -86.1711 167° South 449 517 35,000  Level Memphis Center
Tue 09:38:22 PM 37.3631 -86.1567 168° South 441 507 35,000  Level Indianapolis Center
Tue 09:38:53 PM 37.2997 -86.1383 167° South 449 517 35,000  Level Memphis Center
Tue 09:39:23 PM 37.2417 -86.1222 168° South 443 510 35,000  Level Indianapolis Center
Tue 09:40:24 PM 37.1206 -86.0886 168° South 442 509 35,000  Level Indianapolis Center
Tue 09:40:53 PM 37.0619 -86.0728 168° South 444 511 35,000  Level Memphis Center
Tue 09:41:53 PM 36.9400 -86.0378 167° South 444 511 35,000  Level Memphis Center
Tue 09:42:53 PM 36.8094 -85.9983 166° South 439 505 35,000  Level Memphis Center
Tue 09:43:53 PM 36.6875 -85.9661 168° South 439 505 35,000  Level Memphis Center
Tue 09:44:53 PM 36.5653 -85.9314 167° South 444 511 35,000  Level Memphis Center
Tue 09:45:53 PM 36.4453 -85.8967 167° South 444 511 35,000  Level Memphis Center
Tue 09:46:53 PM 36.3231 -85.8622 167° South 454 522 35,000  Level Memphis Center
Tue 09:47:53 PM 36.2031 -85.8303 168° South 454 522 35,000  Level Memphis Center
Tue 09:50:17 PM 35.9169 -85.7542 168° South 483 556 35,000  Level Atlanta Center
Tue 09:51:17 PM 35.7944 -85.7208 168° South 471 542 35,000  Level Atlanta Center
Tue 09:52:17 PM 35.6717 -85.6875 168° South 460 529 35,000  Level Atlanta Center
Tue 09:53:17 PM 35.5492 -85.6544 168° South 455 524 35,000  Level Atlanta Center
Tue 09:54:17 PM 35.4244 -85.6214 168° South 455 524 35,000  Level Atlanta Center
Tue 09:55:17 PM 35.3017 -85.5861 167° South 455 524 35,000  Level Atlanta Center
Tue 09:56:17 PM 35.1792 -85.5533 168° South 455 524 35,000  Level Atlanta Center
Tue 09:57:17 PM 35.0564 -85.5206 168° South 455 524 35,000  Level Atlanta Center
Tue 09:58:17 PM 34.9314 -85.4881 168° South 455 524 35,000  Level Atlanta Center
Tue 09:59:17 PM 34.8067 -85.4556 168° South 455 524 35,000  Level Atlanta Center
Tue 10:00:17 PM 34.6839 -85.4206 167° South 455 524 35,000  Level Atlanta Center
Tue 10:01:17 PM 34.5444 -85.3856 168° South 455 524 35,000  Level Atlanta Center
Tue 10:02:17 PM 34.4197 -85.3533 168° South 455 524 35,000  Level Atlanta Center
Tue 10:03:17 PM 34.3136 -85.3239 167° South 455 524 35,000  Level Atlanta Center
Tue 10:04:17 PM 34.1783 -85.2892 168° South 449 517 35,000  Level Atlanta Center
Tue 10:05:17 PM 34.0533 -85.2547 167° South 449 517 35,000  Level Atlanta Center
Tue 10:06:17 PM 33.9306 -85.2256 169° South 454 522 35,000  Level Atlanta Center
Tue 10:07:17 PM 33.8075 -85.1939 168° South 454 522 35,000  Level Atlanta Center
Tue 10:08:17 PM 33.6828 -85.1622 168° South 454 522 35,000 -50 Level Atlanta Center
Tue 10:09:17 PM 33.5597 -85.1308 168° South 454 522 34,900  Descending Atlanta Center
Tue 10:10:17 PM 33.4350 -85.0967 167° South 454 522 35,000 50 Climbing Atlanta Center
Tue 10:11:17 PM 33.3078 -85.0653 168° South 460 529 35,000 50 Level Atlanta Center
Tue 10:12:17 PM 33.1828 -85.0317 167° South 471 542 35,100  Climbing Atlanta Center
Tue 10:13:17 PM 33.0536 -84.9981 168° South 471 542 35,000 -50 Descending Atlanta Center
Tue 10:14:17 PM 32.9267 -84.9644 167° South 471 542 35,000  Level Atlanta Center
Tue 10:15:17 PM 32.8017 -84.9333 168° South 465 535 35,000  Level Atlanta Center
Tue 10:16:17 PM 32.6767 -84.8975 166° South 465 535 35,000  Level Atlanta Center
Tue 10:17:17 PM 32.5453 -84.8619 167° South 477 549 35,000  Level Atlanta Center
Tue 10:18:17 PM 32.4203 -84.8311 168° South 472 543 35,000  Level Atlanta Center
Tue 10:19:17 PM 32.2953 -84.8081 171° South 466 536 35,000  Level Atlanta Center
Tue 10:21:31 PM 32.0258 -84.7256 165° South 452 520 35,000  Level Jacksonville Center
Tue 10:22:31 PM 31.9036 -84.6717 159° South 457 526 35,000  Level Jacksonville Center
Tue 10:23:31 PM 31.7811 -84.6156 159° South 464 534 35,000  Level Jacksonville Center
Tue 10:24:31 PM 31.6525 -84.5594 160° South 470 541 35,000  Level Jacksonville Center
Tue 10:25:31 PM 31.5278 -84.5036 159° South 475 547 35,000  Level Jacksonville Center
Tue 10:26:31 PM 31.4033 -84.4456 158° South 480 552 35,000  Level Jacksonville Center
Tue 10:27:31 PM 31.2767 -84.3922 160° South 485 558 35,000  Level Jacksonville Center
Tue 10:28:31 PM 31.1478 -84.3344 159° South 485 558 35,000  Level Jacksonville Center
Tue 10:29:31 PM 31.0231 -84.2792 159° South 485 558 35,000  Level Jacksonville Center
Tue 10:30:31 PM 30.8964 -84.2217 159° South 485 558 35,000  Level Jacksonville Center
Tue 10:31:31 PM 30.7717 -84.1692 160° South 485 558 35,000  Level Jacksonville Center
Tue 10:32:31 PM 30.6469 -84.1144 159° South 485 558 35,000 -50 Level Jacksonville Center
Tue 10:33:31 PM 30.5264 -84.0575 158° South 485 558 34,900  Descending Jacksonville Center
Tue 10:34:31 PM 30.3975 -84.0053 161° South 479 551 35,000  Climbing Jacksonville Center
Tue 10:35:31 PM 30.2683 -83.9483 159° South 487 560 34,900  Descending Jacksonville Center
Tue 10:36:31 PM 30.1436 -83.8967 160° South 487 560 35,000 50 Climbing Jacksonville Center
Tue 10:37:31 PM 30.0186 -83.8400 159° South 487 560 35,000 -50 Level Jacksonville Center
Tue 10:38:31 PM 29.8917 -83.7861 160° South 487 560 34,900 -50 Descending Jacksonville Center
Tue 10:39:31 PM 29.7628 -83.7325 160° South 487 560 34,900  Level Jacksonville Center
Tue 10:40:31 PM 29.6356 -83.6764 159° South 487 560 34,900 50 Level Jacksonville Center
Tue 10:41:31 PM 29.5067 -83.6228 160° South 487 560 35,000 50 Climbing Jacksonville Center
Tue 10:42:31 PM 29.3775 -83.5694 160° South 487 560 35,000  Level Jacksonville Center
Tue 10:43:31 PM 29.2503 -83.5139 159° South 487 560 35,000 -50 Level Jacksonville Center
Tue 10:44:31 PM 29.1108 -83.4536 159° South 487 560 34,900 -50 Descending Jacksonville Center
Tue 10:45:31 PM 28.9836 -83.4006 160° South 487 560 34,900 -350 Level Jacksonville Center
Tue 10:46:31 PM 28.8567 -83.3453 159° South 487 560 34,200 -850 Descending Jacksonville Center
Tue 10:47:31 PM 28.7275 -83.2903 160° South 487 560 33,200 -950 Descending Jacksonville Center
Tue 10:48:31 PM 28.6003 -83.2378 160° South 487 560 32,300 -950 Descending Jacksonville Center
Tue 10:49:31 PM 28.4731 -83.1831 159° South 487 560 31,300 -942 Descending Jacksonville Center
Tue 10:50:32 PM 28.3439 -83.1331 161° South 487 560 30,400 -929 Descending Jacksonville Center
Tue 10:50:55 PM 28.2897 -83.1103 160° South 484 557 30,000 -1,518 Descending Miami Center
Tue 10:51:55 PM 28.1647 -83.0564 159° South 516 594 28,300 -1,550 Descending Miami Center
Tue 10:52:55 PM 28.0397 -83.0025 159° South 501 577 26,900 -650 Descending Miami Center
Tue 10:53:55 PM 27.9194 -82.9397 155° Southeast 484 557 27,000  Climbing Miami Center
Tue 10:54:55 PM 27.8117 -82.8753 152° Southeast 484 557 26,900 -350 Descending Miami Center
Tue 10:55:55 PM 27.6853 -82.8006 152° Southeast 476 548 26,300 -1,250 Descending Miami Center
Tue 10:56:55 PM 27.5692 -82.7336 153° Southeast 471 542 24,400 -1,950 Descending Miami Center
Tue 10:57:55 PM 27.4672 -82.6747 153° Southeast 466 536 22,400 -1,950 Descending Miami Center
Tue 10:58:55 PM 27.3572 -82.6108 153° Southeast 454 522 20,500 -1,850 Descending Miami Center
Tue 10:59:55 PM 27.2533 -82.5494 152° Southeast 439 505 18,700 -1,900 Descending Miami Center
Tue 11:00:55 PM 27.1431 -82.4833 152° Southeast 424 488 16,700 -1,900 Descending Miami Center
Tue 11:01:55 PM 27.0472 -82.4297 154° Southeast 405 466 14,900 -1,750 Descending Miami Center
Tue 11:02:55 PM 26.9553 -82.3767 153° Southeast 385 443 13,200 -1,650 Descending Miami Center
Tue 11:03:55 PM 26.8653 -82.3258 153° Southeast 374 430 11,600 -1,250 Descending Miami Center
Tue 11:04:55 PM 26.7858 -82.2778 152° Southeast 352 405 10,700 -1,100 Descending Miami Center
Tue 11:05:55 PM 26.7189 -82.2258 145° Southeast 319 367 9,400 -1,400 Descending Miami Center
Tue 11:06:55 PM 26.6519 -82.1694 143° Southeast 304 350 7,900 -1,450 Descending Miami Center
Tue 11:07:55 PM 26.5933 -82.1181 142° Southeast 291 335 6,500 -1,750 Descending Miami Center
Tue 11:08:55 PM 26.5458 -82.0464 127° Southeast 280 322 4,400 -1,750 Descending Miami Center
Tue 11:09:55 PM 26.5039 -81.9889 129° Southeast 268 308 3,000 -700 Descending Miami Center
Tue 11:10:55 PM 26.4703 -81.9408 128° Southeast 230 265 3,000  Level Miami Center

Login

Don't have an account? Register now (free) for customized features, flight alerts, and more!